createdAt,value
2022-10-05T00:01:14.188Z,98846.34
2022-10-05T00:03:41.715Z,98848.03
2022-10-05T00:06:10.352Z,98848.38
2022-10-05T00:08:37.444Z,98837.72
2022-10-05T00:11:09.048Z,98838.72
2022-10-05T00:13:36.569Z,98828.09
2022-10-05T00:16:16.323Z,98833.84
2022-10-05T00:18:50.762Z,98828.56
2022-10-05T00:21:21.190Z,98832.69
2022-10-05T00:23:49.636Z,98836.09
2022-10-05T00:26:19.388Z,98827.56
2022-10-05T00:28:46.761Z,98830.34
2022-10-05T00:31:19.505Z,98824.91
2022-10-05T00:33:47.480Z,98825.00
2022-10-05T00:36:15.113Z,98821.69
2022-10-05T00:38:42.892Z,98834.34
2022-10-05T00:41:13.740Z,98842.31
2022-10-05T00:43:56.544Z,98836.13
2022-10-05T00:46:34.575Z,98835.13
2022-10-05T00:49:20.418Z,98835.91
2022-10-05T00:52:14.417Z,98834.00
2022-10-05T00:54:48.080Z,98840.13
2022-10-05T00:57:38.608Z,98837.50
2022-10-05T01:00:10.337Z,98840.81
2022-10-05T01:02:46.906Z,98842.59
2022-10-05T01:05:32.033Z,98842.47
2022-10-05T01:08:12.200Z,98834.56
2022-10-05T01:10:48.552Z,98846.56
2022-10-05T01:13:23.827Z,98838.66
2022-10-05T01:15:57.515Z,98846.47
2022-10-05T01:18:38.880Z,98844.84
2022-10-05T01:21:23.249Z,98854.00
2022-10-05T01:23:59.483Z,98856.13
2022-10-05T01:26:36.218Z,98851.84
2022-10-05T01:29:06.480Z,98843.94
2022-10-05T01:31:47.876Z,98854.03
2022-10-05T01:34:38.298Z,98846.66
2022-10-05T01:37:08.627Z,98849.53
2022-10-05T01:39:50.055Z,98855.13
2022-10-05T01:42:17.766Z,98847.19
2022-10-05T01:44:45.317Z,98851.84
2022-10-05T01:47:35.848Z,98845.06
2022-10-05T01:50:07.356Z,98847.38
2022-10-05T01:52:53.321Z,98847.19
2022-10-05T01:55:29.977Z,98840.91
2022-10-05T01:58:07.805Z,98843.56
2022-10-05T02:00:40.138Z,98852.56
2022-10-05T02:03:11.932Z,98849.84
2022-10-05T02:05:41.320Z,98851.47
2022-10-05T02:08:15.110Z,98851.38
2022-10-05T02:10:49.774Z,98847.81
2022-10-05T02:13:23.134Z,98853.88
2022-10-05T02:15:59.613Z,98852.97
2022-10-05T02:18:37.132Z,98851.19
2022-10-05T02:21:05.824Z,98855.59
2022-10-05T02:23:34.408Z,98854.75
2022-10-05T02:26:02.153Z,98853.47
2022-10-05T02:28:35.148Z,98855.50
2022-10-05T02:31:07.354Z,98853.31
2022-10-05T02:33:35.140Z,98858.09
2022-10-05T02:36:15.910Z,98856.63
2022-10-05T02:38:48.574Z,98862.59
2022-10-05T02:41:32.202Z,98867.59
2022-10-05T02:43:59.639Z,98869.91
2022-10-05T02:46:29.825Z,98853.88
2022-10-05T02:49:14.817Z,98861.69
2022-10-05T02:51:42.121Z,98859.81
2022-10-05T02:54:16.831Z,98856.41
2022-10-05T02:56:52.941Z,98866.03
2022-10-05T02:59:30.223Z,98866.19
2022-10-05T03:02:05.059Z,98859.28
2022-10-05T03:04:40.222Z,98868.06
2022-10-05T03:07:13.628Z,98871.47
2022-10-05T03:10:01.300Z,98867.28
2022-10-05T03:12:38.452Z,98873.63
2022-10-05T03:15:05.773Z,98875.72
2022-10-05T03:17:48.030Z,98873.72
2022-10-05T03:20:36.937Z,98867.97
2022-10-05T03:23:08.415Z,98874.97
2022-10-05T03:25:52.429Z,98872.38
2022-10-05T03:28:27.296Z,98873.22
2022-10-05T03:31:04.321Z,98876.03
2022-10-05T03:33:42.243Z,98878.59
2022-10-05T03:36:25.831Z,98881.25
2022-10-05T03:39:03.333Z,98878.59
2022-10-05T03:41:31.135Z,98882.78
2022-10-05T03:44:19.381Z,98879.22
2022-10-05T03:47:02.747Z,98879.06
2022-10-05T03:49:42.454Z,98891.31
2022-10-05T03:52:18.440Z,98891.31
2022-10-05T03:55:00.234Z,98889.69
2022-10-05T03:57:29.553Z,98885.41
2022-10-05T04:00:13.110Z,98886.31
2022-10-05T04:03:00.959Z,98887.53
2022-10-05T04:05:47.250Z,98881.63
2022-10-05T04:08:30.017Z,98886.31
2022-10-05T04:11:00.825Z,98886.47
2022-10-05T04:13:54.538Z,98894.41
2022-10-05T04:16:21.858Z,98897.19
2022-10-05T04:18:59.755Z,98892.75
2022-10-05T04:21:26.775Z,98896.97
2022-10-05T04:23:56.108Z,98893.19
2022-10-05T04:26:32.589Z,98895.81
2022-10-05T04:29:07.848Z,98892.88
2022-10-05T04:31:51.845Z,98900.63
2022-10-05T04:34:39.368Z,98901.50
2022-10-05T04:37:10.523Z,98903.81
2022-10-05T04:39:56.975Z,98912.16
2022-10-05T04:42:31.695Z,98905.25
2022-10-05T04:45:08.195Z,98905.25
2022-10-05T04:47:55.856Z,98907.09
2022-10-05T04:50:26.203Z,98902.66
2022-10-05T04:53:19.939Z,98905.38
2022-10-05T04:55:52.009Z,98854.84
2022-10-05T04:58:31.818Z,98906.91
2022-10-05T05:01:20.267Z,98914.44
2022-10-05T05:03:50.843Z,98914.44
2022-10-05T05:06:33.311Z,98907.94
2022-10-05T05:09:04.025Z,98918.19
2022-10-05T05:11:50.884Z,98920.72
2022-10-05T05:14:36.912Z,98916.97
2022-10-05T05:17:22.928Z,98910.69
2022-10-05T05:20:00.005Z,98913.97
2022-10-05T05:22:36.105Z,98914.41
2022-10-05T05:25:26.510Z,98915.16
2022-10-05T05:28:03.754Z,98912.25
2022-10-05T05:30:37.746Z,98910.94
2022-10-05T05:33:20.858Z,98904.31
2022-10-05T05:36:03.909Z,98903.16
2022-10-05T05:38:33.672Z,98898.81
2022-10-05T05:41:09.693Z,98910.06
2022-10-05T05:43:41.836Z,98907.97
2022-10-05T05:47:02.461Z,98918.25
2022-10-05T05:49:46.648Z,98923.94
2022-10-05T05:52:18.732Z,98926.91
2022-10-05T05:54:51.730Z,98923.25
2022-10-05T05:57:26.881Z,98925.78
2022-10-05T06:00:05.704Z,98885.06
2022-10-05T06:02:56.083Z,98929.22
2022-10-05T06:05:36.326Z,98926.56
2022-10-05T06:08:24.013Z,98931.22
2022-10-05T06:10:58.849Z,98937.06
2022-10-05T06:13:36.147Z,98931.88
2022-10-05T06:16:09.780Z,98937.13
2022-10-05T06:18:39.982Z,98933.91
2022-10-05T06:21:13.076Z,98933.56
2022-10-05T06:23:40.308Z,98940.41
2022-10-05T06:26:10.824Z,98943.91
2022-10-05T06:28:41.489Z,98944.75
2022-10-05T06:31:08.887Z,98950.97
2022-10-05T06:33:38.846Z,98959.84
2022-10-05T06:36:06.102Z,98950.81
2022-10-05T06:38:52.177Z,98962.84
2022-10-05T06:41:31.846Z,98960.50
2022-10-05T06:44:04.562Z,98959.88
2022-10-05T06:46:38.059Z,98966.97
2022-10-05T06:49:40.750Z,98965.19
2022-10-05T06:52:39.095Z,98972.03
2022-10-05T06:55:16.803Z,98975.72
2022-10-05T06:57:47.351Z,98974.88
2022-10-05T07:00:14.568Z,98982.63
2022-10-05T07:02:47.698Z,98987.06
2022-10-05T07:05:33.714Z,98991.13
2022-10-05T07:08:21.354Z,98992.34
2022-10-05T07:10:51.759Z,98994.78
2022-10-05T07:13:37.717Z,99000.44
2022-10-05T07:16:13.146Z,98996.56
2022-10-05T07:18:47.032Z,98995.41
2022-10-05T07:21:15.334Z,99001.34
2022-10-05T07:23:45.610Z,99001.75
2022-10-05T07:26:18.757Z,99006.72
2022-10-05T07:29:10.782Z,98993.28
2022-10-05T07:31:42.522Z,99005.50
2022-10-05T07:34:21.778Z,98998.25
2022-10-05T07:37:30.851Z,99007.06
2022-10-05T07:40:10.825Z,99007.16
2022-10-05T07:42:53.142Z,99011.13
2022-10-05T07:45:29.294Z,99017.38
2022-10-05T07:47:59.712Z,99017.63
2022-10-05T07:50:27.817Z,99033.09
2022-10-05T07:53:01.544Z,99028.03
2022-10-05T07:55:34.767Z,99032.16
2022-10-05T07:58:21.260Z,99039.31
2022-10-05T08:00:52.379Z,99037.97
2022-10-05T08:03:55.256Z,99043.38
2022-10-05T08:06:38.335Z,99040.38
2022-10-05T08:09:17.477Z,99044.59
2022-10-05T08:12:00.386Z,99041.16
2022-10-05T08:14:37.925Z,99041.94
2022-10-05T08:17:11.583Z,99046.56
2022-10-05T08:19:50.994Z,99050.34
2022-10-05T08:22:23.630Z,99053.16
2022-10-05T08:25:02.259Z,99050.63
2022-10-05T08:27:42.117Z,99056.31
2022-10-05T08:30:10.712Z,99060.03
2022-10-05T08:32:58.002Z,99063.88
2022-10-05T08:35:45.162Z,99065.81
2022-10-05T08:38:17.336Z,99068.09
2022-10-05T08:40:45.571Z,99060.91
2022-10-05T08:43:45.969Z,99065.75
2022-10-05T08:46:23.510Z,99074.56
2022-10-05T08:48:51.046Z,99067.09
2022-10-05T08:51:27.558Z,99071.09
2022-10-05T08:54:20.736Z,99073.72
2022-10-05T08:57:03.358Z,99068.59
2022-10-05T08:59:48.965Z,99071.94
2022-10-05T09:02:36.614Z,99064.69
2022-10-05T09:05:12.748Z,99074.53
2022-10-05T09:07:39.980Z,99079.69
2022-10-05T09:10:19.530Z,99088.34
2022-10-05T09:13:05.374Z,99084.03
2022-10-05T09:15:32.756Z,99092.50
2022-10-05T09:18:18.576Z,99091.19
2022-10-05T09:21:04.574Z,99091.81
2022-10-05T09:23:45.052Z,99093.09
2022-10-05T09:26:30.547Z,99103.13
2022-10-05T09:29:02.205Z,99100.03
2022-10-05T09:31:42.115Z,99104.34
2022-10-05T09:34:21.461Z,99103.69
2022-10-05T09:37:07.169Z,99104.50
2022-10-05T09:39:43.554Z,99102.56
2022-10-05T09:42:22.899Z,99107.50
2022-10-05T09:45:20.463Z,99112.88
2022-10-05T09:48:07.284Z,99113.13
2022-10-05T09:50:44.798Z,99117.09
2022-10-05T09:53:32.547Z,99113.09
2022-10-05T09:56:09.789Z,99108.63
2022-10-05T09:58:49.811Z,99110.75
2022-10-05T10:01:35.664Z,99124.53
2022-10-05T10:04:10.281Z,99118.63
2022-10-05T10:06:51.740Z,99124.13
2022-10-05T10:09:28.337Z,99129.66
2022-10-05T10:12:13.805Z,99134.00
2022-10-05T10:15:02.884Z,99131.94
2022-10-05T10:17:50.076Z,99141.22
2022-10-05T10:20:35.798Z,99138.59
2022-10-05T10:23:18.117Z,99140.47
2022-10-05T10:25:45.533Z,99145.78
2022-10-05T10:28:15.455Z,99141.56
2022-10-05T10:30:52.279Z,99148.88
2022-10-05T10:33:37.698Z,99147.09
2022-10-05T10:36:07.994Z,99160.84
2022-10-05T10:38:58.718Z,99156.84
2022-10-05T10:41:32.347Z,99170.78
2022-10-05T10:44:06.324Z,99162.97
2022-10-05T10:46:54.079Z,99159.16
2022-10-05T10:49:40.254Z,99152.78
2022-10-05T10:52:13.714Z,99160.13
2022-10-05T10:54:43.863Z,99156.94
2022-10-05T10:57:11.201Z,99160.81
2022-10-05T10:59:47.298Z,99160.16
2022-10-05T11:02:20.800Z,99164.03
2022-10-05T11:05:03.535Z,99173.56
2022-10-05T11:07:45.144Z,99162.16
2022-10-05T11:10:12.554Z,99159.38
2022-10-05T11:12:44.663Z,99162.88
2022-10-05T11:15:11.807Z,99173.22
2022-10-05T11:17:51.398Z,99179.13
2022-10-05T11:20:18.760Z,99180.16
2022-10-05T11:22:58.005Z,99176.84
2022-10-05T11:25:34.057Z,99186.63
2022-10-05T11:28:04.923Z,99197.63
2022-10-05T11:30:38.187Z,99197.94
2022-10-05T11:33:06.490Z,99201.34
2022-10-05T11:35:52.446Z,99204.47
2022-10-05T11:38:26.637Z,99209.47
2022-10-05T11:41:09.286Z,99223.72
2022-10-05T11:43:52.098Z,99218.41
2022-10-05T11:46:25.041Z,99226.44
2022-10-05T11:49:04.698Z,99226.06
2022-10-05T11:51:38.588Z,99228.41
2022-10-05T11:54:17.681Z,99227.69
2022-10-05T11:56:52.289Z,99105.28
2022-10-05T11:59:29.423Z,99229.41
2022-10-05T12:02:15.543Z,99239.34
2022-10-05T12:04:52.382Z,99249.38
2022-10-05T12:07:19.596Z,99257.84
2022-10-05T12:10:14.670Z,99251.44
2022-10-05T12:13:01.578Z,99256.34
2022-10-05T12:15:36.709Z,99253.00
2022-10-05T12:18:13.607Z,99254.94
2022-10-05T12:20:46.726Z,99251.31
2022-10-05T12:23:13.870Z,99250.97
2022-10-05T12:25:44.028Z,99257.22
2022-10-05T12:28:13.289Z,99257.53
2022-10-05T12:30:59.173Z,99264.97
2022-10-05T12:33:29.812Z,99261.53
2022-10-05T12:36:02.352Z,99271.84
2022-10-05T12:38:34.101Z,99260.44
2022-10-05T12:41:07.621Z,99271.31
2022-10-05T12:43:43.990Z,99270.28
2022-10-05T12:46:29.593Z,99273.13
2022-10-05T12:49:03.082Z,99274.50
2022-10-05T12:51:30.680Z,99285.88
2022-10-05T12:54:06.847Z,99283.22
2022-10-05T12:56:38.864Z,99279.78
2022-10-05T12:59:19.833Z,99278.25
2022-10-05T13:01:50.667Z,99274.50
2022-10-05T13:04:32.972Z,99277.28
2022-10-05T13:07:19.090Z,99276.72
2022-10-05T13:09:58.777Z,99279.22
2022-10-05T13:12:29.963Z,99279.16
2022-10-05T13:15:04.831Z,99271.78
2022-10-05T13:17:56.445Z,99272.22
2022-10-05T13:20:28.292Z,99273.44
2022-10-05T13:23:02.144Z,99274.63
2022-10-05T13:25:34.963Z,99281.72
2022-10-05T13:28:02.683Z,99282.00
2022-10-05T13:30:29.885Z,99286.66
2022-10-05T13:33:08.335Z,99298.03
2022-10-05T13:35:35.458Z,99290.75
2022-10-05T13:38:06.205Z,99297.91
2022-10-05T13:40:37.686Z,99303.50
2022-10-05T13:43:24.078Z,99307.53
2022-10-05T13:45:57.133Z,99306.19
2022-10-05T13:48:27.485Z,99299.53
2022-10-05T13:51:02.539Z,99302.44
2022-10-05T13:53:29.790Z,99298.25
2022-10-05T13:56:07.157Z,99300.28
2022-10-05T13:58:34.531Z,99309.28
2022-10-05T14:01:02.583Z,99315.28
2022-10-05T14:03:31.145Z,99311.72
2022-10-05T14:06:00.256Z,99316.91
2022-10-05T14:08:32.891Z,99320.34
2022-10-05T14:11:00.670Z,99316.69
2022-10-05T14:13:48.277Z,99319.28
2022-10-05T14:16:21.594Z,99322.81
2022-10-05T14:19:12.427Z,99326.19
2022-10-05T14:21:47.600Z,99326.56
2022-10-05T14:24:45.201Z,99328.81
2022-10-05T14:27:27.088Z,99323.34
2022-10-05T14:30:00.863Z,99329.91
2022-10-05T14:32:31.582Z,99338.94
2022-10-05T14:35:09.027Z,99334.69
2022-10-05T14:37:45.456Z,99344.38
2022-10-05T14:40:26.998Z,99341.72
2022-10-05T14:42:54.752Z,99339.84
2022-10-05T14:45:23.961Z,99335.44
2022-10-05T14:48:02.765Z,99337.13
2022-10-05T14:50:31.537Z,99345.84
2022-10-05T14:53:18.347Z,99340.63
2022-10-05T14:55:45.712Z,99340.63
2022-10-05T14:58:18.735Z,99342.41
2022-10-05T15:00:57.260Z,99349.50
2022-10-05T15:03:24.376Z,99356.69
2022-10-05T15:05:59.226Z,99364.78
2022-10-05T15:09:16.451Z,99360.44
2022-10-05T15:11:45.099Z,99358.13
2022-10-05T15:14:16.751Z,99374.63
2022-10-05T15:16:44.751Z,99371.84
2022-10-05T15:19:16.207Z,99373.16
2022-10-05T15:21:46.214Z,99376.28
2022-10-05T15:24:33.591Z,99379.41
2022-10-05T15:27:04.179Z,99387.84
2022-10-05T15:29:37.723Z,99388.22
2022-10-05T15:32:09.904Z,99390.16
2022-10-05T15:34:41.771Z,99392.50
2022-10-05T15:37:12.553Z,99399.22
2022-10-05T15:39:52.873Z,99403.34
2022-10-05T15:42:22.840Z,99403.16
2022-10-05T15:45:08.274Z,99402.03
2022-10-05T15:47:45.569Z,99403.47
2022-10-05T15:50:24.913Z,99404.22
2022-10-05T15:53:10.665Z,99406.09
2022-10-05T15:55:38.229Z,99414.91
2022-10-05T15:58:08.521Z,99413.19
2022-10-05T16:00:43.318Z,99414.91
2022-10-05T16:03:23.426Z,99415.75
2022-10-05T16:06:26.919Z,99420.09
2022-10-05T16:09:06.461Z,99417.47
2022-10-05T16:11:52.863Z,99424.41
2022-10-05T16:14:23.426Z,99425.16
2022-10-05T16:17:13.930Z,99426.72
2022-10-05T16:19:46.275Z,99421.38
2022-10-05T16:22:21.983Z,99420.44
2022-10-05T16:25:00.615Z,99421.28
2022-10-05T16:27:29.085Z,99423.06
2022-10-05T16:30:05.440Z,99423.94
2022-10-05T16:32:35.893Z,99426.66
2022-10-05T16:35:21.639Z,99422.28
2022-10-05T16:37:49.076Z,99422.22
2022-10-05T16:40:21.157Z,99420.50
2022-10-05T16:43:05.626Z,99429.22
2022-10-05T16:45:56.547Z,99427.66
2022-10-05T16:48:30.189Z,99424.59
2022-10-05T16:51:07.770Z,99426.84
2022-10-05T16:53:40.416Z,99433.53
2022-10-05T16:56:11.374Z,99437.53
2022-10-05T16:58:49.177Z,99445.88
2022-10-05T17:01:24.148Z,99447.28
2022-10-05T17:04:06.313Z,99444.91
2022-10-05T17:06:39.845Z,99447.63
2022-10-05T17:09:23.504Z,99448.44
2022-10-05T17:11:51.104Z,99447.41
2022-10-05T17:14:24.682Z,99453.50
2022-10-05T17:16:55.037Z,99452.44
2022-10-05T17:19:32.453Z,99460.22
2022-10-05T17:22:01.816Z,99455.75
2022-10-05T17:24:32.549Z,99460.88
2022-10-05T17:27:18.562Z,99458.91
2022-10-05T17:29:50.021Z,99455.19
2022-10-05T17:32:17.392Z,99457.66
2022-10-05T17:35:02.809Z,99466.19
2022-10-05T17:37:35.623Z,99464.22
2022-10-05T17:40:26.368Z,99463.09
2022-10-05T17:43:22.528Z,99461.97
2022-10-05T17:45:51.669Z,99464.47
2022-10-05T17:48:37.475Z,99466.97
2022-10-05T17:51:35.036Z,99468.59
2022-10-05T17:54:37.593Z,99462.31
2022-10-05T17:57:04.793Z,99461.47
2022-10-05T17:59:48.594Z,99470.22
2022-10-05T18:02:21.562Z,99473.88
2022-10-05T18:04:51.342Z,99470.47
2022-10-05T18:07:19.795Z,99480.38
2022-10-05T18:10:16.546Z,99478.13
2022-10-05T18:12:49.202Z,99472.69
2022-10-05T18:15:23.328Z,99475.06
2022-10-05T18:17:51.676Z,99487.03
2022-10-05T18:20:31.641Z,99482.13
2022-10-05T18:23:09.507Z,99492.59
2022-10-05T18:25:55.514Z,99481.75
2022-10-05T18:28:27.270Z,99490.59
2022-10-05T18:31:21.355Z,99486.47
2022-10-05T18:33:51.001Z,99502.00
2022-10-05T18:36:21.713Z,99495.34
2022-10-05T18:38:57.099Z,99504.41
2022-10-05T18:41:34.272Z,99500.41
2022-10-05T18:44:19.891Z,99501.53
2022-10-05T18:47:12.593Z,99496.53
2022-10-05T18:49:53.433Z,99495.13
2022-10-05T18:52:40.708Z,99494.53
2022-10-05T18:55:26.424Z,99493.84
2022-10-05T18:58:02.788Z,99497.50
2022-10-05T19:00:55.727Z,99494.06
2022-10-05T19:03:43.603Z,99493.03
2022-10-05T19:06:52.181Z,99500.75
2022-10-05T19:09:41.040Z,99501.34
2022-10-05T19:12:17.244Z,99501.41
2022-10-05T19:14:54.287Z,99504.22
2022-10-05T19:17:42.236Z,99506.09
2022-10-05T19:20:30.710Z,99505.41
2022-10-05T19:22:57.770Z,99507.03
2022-10-05T19:25:25.145Z,99499.66
2022-10-05T19:27:55.371Z,99495.56
2022-10-05T19:30:23.220Z,99494.16
2022-10-05T19:33:08.934Z,99504.38
2022-10-05T19:35:35.998Z,99505.09
2022-10-05T19:38:20.369Z,99507.59
2022-10-05T19:40:47.620Z,99507.38
2022-10-05T19:43:33.773Z,99505.38
2022-10-05T19:46:14.153Z,99509.41
2022-10-05T19:48:50.272Z,99507.59
2022-10-05T19:51:35.238Z,99509.97
2022-10-05T19:54:05.285Z,99515.91
2022-10-05T19:56:48.809Z,99511.31
2022-10-05T19:59:20.780Z,99515.69
2022-10-05T20:01:50.146Z,99507.72
2022-10-05T20:04:35.763Z,99518.13
2022-10-05T20:07:04.699Z,99511.88
2022-10-05T20:09:50.689Z,99502.16
2022-10-05T20:12:19.698Z,99512.72
2022-10-05T20:15:05.180Z,99511.81
2022-10-05T20:17:50.847Z,99508.09
2022-10-05T20:20:31.215Z,99515.91
2022-10-05T20:23:16.898Z,99514.06
2022-10-05T20:26:03.841Z,99517.50
2022-10-05T20:28:32.204Z,99507.75
2022-10-05T20:30:59.750Z,99512.09
2022-10-05T20:33:27.680Z,99512.94
2022-10-05T20:35:55.932Z,99526.09
2022-10-05T20:38:28.047Z,99516.44
2022-10-05T20:40:55.162Z,99517.44
2022-10-05T20:43:22.751Z,99522.78
2022-10-05T20:45:49.815Z,99520.16
2022-10-05T20:48:19.206Z,99529.00
2022-10-05T20:50:50.422Z,99522.91
2022-10-05T20:56:41.423Z,99528.53
2022-10-05T20:59:59.752Z,99518.09
2022-10-05T21:08:14.196Z,99525.31
2022-10-05T21:13:53.555Z,99527.09
2022-10-05T21:16:34.637Z,99522.72
2022-10-05T21:22:12.007Z,99521.56
2022-10-05T21:24:47.701Z,99525.78
2022-10-05T21:27:25.742Z,99525.72
2022-10-05T21:29:58.867Z,99534.38
2022-10-05T21:32:25.870Z,99524.56
2022-10-05T21:34:52.825Z,99535.84
2022-10-05T21:37:20.172Z,99528.75
2022-10-05T21:39:47.208Z,99525.97
2022-10-05T21:42:14.445Z,99525.91
2022-10-05T21:44:41.668Z,99528.47
2022-10-05T21:47:08.593Z,99532.94
2022-10-05T21:49:36.180Z,99533.75
2022-10-05T21:52:03.798Z,99538.91
2022-10-05T21:54:32.381Z,99538.91
2022-10-05T21:57:00.574Z,99547.72
2022-10-05T21:59:29.590Z,99554.75
2022-10-05T22:01:56.767Z,99555.63
2022-10-05T22:04:23.856Z,99559.13
2022-10-05T22:06:51.404Z,99562.63
2022-10-05T22:09:18.353Z,99553.03
2022-10-05T22:11:49.329Z,99562.75
2022-10-05T22:14:16.424Z,99565.44
2022-10-05T22:16:44.602Z,99565.53
2022-10-05T22:19:14.617Z,99562.06
2022-10-05T22:21:42.018Z,99564.72
2022-10-05T22:24:11.737Z,99566.50
2022-10-05T22:26:40.308Z,99569.13
2022-10-05T22:29:07.434Z,99572.56
2022-10-05T22:31:34.603Z,99572.50
2022-10-05T22:34:01.597Z,99576.94
2022-10-05T22:36:28.690Z,99563.78
2022-10-05T22:38:55.661Z,99568.06
2022-10-05T22:41:22.748Z,99560.97
2022-10-05T22:43:51.026Z,99567.09
2022-10-05T22:46:18.640Z,99569.59
2022-10-05T22:48:45.745Z,99561.63
2022-10-05T22:51:12.800Z,99566.06
2022-10-05T22:53:39.978Z,99565.97
2022-10-05T22:56:11.145Z,99566.78
2022-10-05T22:58:38.796Z,99560.53
2022-10-05T23:01:07.251Z,99564.81
2022-10-05T23:03:34.909Z,99562.13
2022-10-05T23:06:03.765Z,99557.75
2022-10-05T23:08:31.756Z,99563.78
2022-10-05T23:11:03.498Z,99566.34
2022-10-05T23:13:30.572Z,99561.06
2022-10-05T23:15:57.688Z,99567.09
2022-10-05T23:18:25.006Z,99564.31
2022-10-05T23:20:56.002Z,99569.41
2022-10-05T23:23:23.479Z,99564.06
2022-10-05T23:25:50.744Z,99563.34
2022-10-05T23:28:17.979Z,99563.38
2022-10-05T23:30:45.694Z,99565.03
2022-10-05T23:33:12.810Z,99564.25
2022-10-05T23:35:39.802Z,99574.88
2022-10-05T23:38:06.800Z,99572.25
2022-10-05T23:40:33.785Z,99569.53
2022-10-05T23:43:01.119Z,99566.03
2022-10-05T23:45:28.027Z,99570.50
2022-10-05T23:47:55.005Z,99572.25
2022-10-05T23:50:25.011Z,99573.28
2022-10-05T23:52:52.175Z,99574.22
2022-10-05T23:55:19.222Z,99569.91
2022-10-05T23:57:46.266Z,99582.19
